Flight Track Log - Related Links

Times and Time Zones

All times are in EDT time to prevent confusion due to time zone crossing. See the N849WM flight status page for this flight to view local times or setup timezone preferences in your user account.

Time Position Orientation Groundspeed Altitude Reporting Facility
EDT Latitude Longitude Course Direction KTS MPH feet Rate Location/Type
Tue 09:39:00 AM 30.4633 -84.0935 69° East  Level FlightAware
Tue 09:40:00 AM 30.4661 -84.0432 86° East  Level FlightAware
Tue 09:41:00 AM 30.4789 -83.9943 70° East  Level FlightAware
Tue 09:42:00 AM 30.4938 -83.9468 70° East  Level FlightAware
Tue 09:43:00 AM 30.5086 -83.8994 70° East  Level FlightAware
Tue 09:44:00 AM 30.5234 -83.8519 70° East  Level FlightAware
Tue 09:45:00 AM 30.5382 -83.8044 70° East  Level FlightAware
Tue 09:45:51 AM 30.5319 -83.8742 71° East 170 196 6,900  Level Jacksonville Center
Tue 09:46:00 AM 30.5492 -83.7563 95° East  Level FlightAware
Tue 09:46:51 AM 30.5408 -83.8164 80° East 170 196 6,900  Level Jacksonville Center
Tue 09:47:00 AM 30.5454 -83.7060 95° East  Level FlightAware
Tue 09:47:52 AM 30.5475 -83.7633 82° East 173 199 6,900  Level Jacksonville Center
Tue 09:48:00 AM 30.5415 -83.6557 95° East  Level FlightAware
Tue 09:48:53 AM 30.5458 -83.7078 92° East 172 198 6,900  Level Jacksonville Center
Tue 09:49:00 AM 30.5376 -83.6054 95° East  Level FlightAware
Tue 09:49:53 AM 30.5442 -83.6500 92° East 172 198 6,900  Level Jacksonville Center
Tue 09:50:00 AM 30.5337 -83.5551 95° East  Level FlightAware
Tue 09:50:54 AM 30.5444 -83.5969 90° East 170 196 6,900  Level Jacksonville Center
Tue 09:51:55 AM 30.5406 -83.5389 94° East 171 197 6,900  Level Jacksonville Center
Tue 09:52:55 AM 30.5408 -83.4883 90° East 170 196 6,900  Level Jacksonville Center
Tue 09:53:56 AM 30.5389 -83.4281 92° East 170 196 6,900  Level Jacksonville Center
Tue 09:54:56 AM 30.5350 -83.3772 95° East 170 196 6,900  Level Jacksonville Center
Tue 09:55:57 AM 30.5353 -83.3194 90° East 170 196 6,900  Level Jacksonville Center
Tue 09:57:01 AM 30.5333 -83.2592 92° East 184 212 6,900  Level Jacksonville Center
Tue 09:58:01 AM 30.5292 -83.2158 96° East 189 217 6,900  Level Jacksonville Center
Tue 09:59:01 AM 30.5272 -83.1506 92° East 177 204 6,900  Level Jacksonville Center
Tue 10:00:01 AM 30.5231 -83.0975 95° East 172 198 6,900  Level Jacksonville Center
Tue 10:01:01 AM 30.5233 -83.0422 90° East 167 192 6,900  Level Jacksonville Center
Tue 10:02:01 AM 30.5211 -82.9892 93° East 167 192 6,900  Level Jacksonville Center
Tue 10:03:01 AM 30.5192 -82.9361 92° East 162 186 6,900  Level Jacksonville Center
Tue 10:04:00 AM 30.5169 -82.8781 93° East 162 186 6,900  Level Jacksonville Center
Tue 10:05:01 AM 30.5150 -82.8250 92° East 162 186 6,900  Level Jacksonville Center
Tue 10:06:01 AM 30.5108 -82.7697 95° East 162 186 6,900  Level Jacksonville Center
Tue 10:07:01 AM 30.5086 -82.7167 93° East 162 186 6,900  Level Jacksonville Center
Tue 10:08:01 AM 30.5064 -82.6586 93° East 162 186 6,900  Level Jacksonville Center
Tue 10:09:01 AM 30.5042 -82.6033 93° East 162 186 6,900  Level Jacksonville Center
Tue 10:09:33 AM 30.5019 -82.5767 96° East 175 201 6,900  Level Jacksonville Center
Tue 10:10:47 AM 30.4956 -82.5117 96° East 173 199 6,900  Level Jacksonville Center
Tue 10:11:48 AM 30.4872 -82.4561 100° East 169 194 6,900  Level Jacksonville Center
Tue 10:12:49 AM 30.4786 -82.3961 99° East 169 194 6,900  Level Jacksonville Center
Tue 10:13:44 AM 30.4719 -82.3503 100° East 169 194 6,900 -103 Level Jacksonville Center
Tue 10:14:45 AM 30.4614 -82.2925 102° East 173 199 6,700 -347 Descending Jacksonville Center
Tue 10:15:45 AM 30.4528 -82.2347 100° East 184 212 6,200 -446 Descending Jacksonville Center
Tue 10:16:46 AM 30.4442 -82.1744 99° East 189 217 5,800 -443 Descending Jacksonville Center
Tue 10:17:47 AM 30.4333 -82.1144 102° East 187 215 5,300 -493 Descending Jacksonville Center
Tue 10:19:00 AM 30.4225 -82.0422 100° East 183 211 4,700 -488 Descending Jacksonville Center
Tue 10:19:50 AM 30.4117 -81.9942 105° East 185 213 4,300 -432 Descending Jacksonville Center
Tue 10:20:51 AM 30.4028 -81.9364 100° East 185 213 3,900 -197 Descending Jacksonville Center
Tue 10:21:52 AM 30.3961 -81.8811 98° East 175 201 3,900  Level Jacksonville Center
Tue 10:22:53 AM 30.3872 -81.8208 100° East 171 197 3,900  Level Jacksonville Center
Tue 10:23:54 AM 30.3764 -81.7681 103° East 173 199 3,900 -197 Level Jacksonville Center
Tue 10:24:55 AM 30.3656 -81.7106 102° East 187 215 3,500 -492 Descending Jacksonville Center
Tue 10:25:56 AM 30.3586 -81.6528 98° East 188 216 2,900 -639 Descending Jacksonville Center
Tue 10:26:57 AM 30.3517 -81.5903 97° East 182 209 2,200 -738 Descending Jacksonville Center
Tue 10:27:58 AM 30.3469 -81.5375 96° East 166 191 1,400 -836 Descending Jacksonville Center
Tue 10:28:59 AM 30.3550 -81.4986 76° East 105 121 500 -590 Descending Jacksonville Center
Tue 10:30:00 AM 30.3383 -81.5086 207° Southwest 92 106 200 -295 Descending Jacksonville Center

Login

Don't have an account? Register now (free) for customized features, flight alerts, and more!